createdAt,value
2018-01-25T00:04:55.525Z,98956.30
2018-01-25T00:10:59.209Z,98954.73
2018-01-25T00:17:02.631Z,98950.52
2018-01-25T00:23:06.047Z,98952.58
2018-01-25T00:29:10.280Z,98956.19
2018-01-25T00:35:13.698Z,98956.00
2018-01-25T00:41:17.093Z,98959.92
2018-01-25T00:47:20.516Z,98964.77
2018-01-25T00:53:23.971Z,98969.23
2018-01-25T00:59:28.179Z,98973.27
2018-01-25T01:05:31.615Z,98966.86
2018-01-25T01:11:35.028Z,98968.42
2018-01-25T01:17:38.467Z,98976.66
2018-01-25T01:23:42.643Z,98976.99
2018-01-25T01:29:46.120Z,98979.89
2018-01-25T01:35:49.543Z,98978.93
2018-01-25T01:41:53.700Z,98981.02
2018-01-25T01:47:57.133Z,98980.83
2018-01-25T01:54:00.547Z,98977.33
2018-01-25T02:00:03.971Z,98975.16
2018-01-25T02:06:07.394Z,98978.86
2018-01-25T02:12:10.814Z,98970.80
2018-01-25T02:18:14.231Z,98972.45
2018-01-25T02:24:17.651Z,98974.61
2018-01-25T02:30:21.076Z,98974.72
2018-01-25T02:36:24.499Z,98972.45
2018-01-25T02:42:27.929Z,98979.59
2018-01-25T02:48:31.377Z,98984.33
2018-01-25T02:54:34.840Z,98977.21
2018-01-25T03:00:38.275Z,98968.45
2018-01-25T03:06:41.683Z,98981.05
2018-01-25T03:12:45.114Z,98974.37
2018-01-25T03:18:48.536Z,98978.16
2018-01-25T03:24:51.938Z,98988.92
2018-01-25T03:30:55.398Z,98995.94
2018-01-25T03:36:59.060Z,99003.13
2018-01-25T03:43:03.250Z,99001.90
2018-01-25T03:49:06.668Z,99020.78
2018-01-25T03:55:10.093Z,99014.07
2018-01-25T04:01:13.548Z,99017.72
2018-01-25T04:07:17.724Z,99021.83
2018-01-25T04:13:21.148Z,99020.48
2018-01-25T04:19:24.565Z,99024.09
2018-01-25T04:25:28.337Z,99022.14
2018-01-25T04:31:31.856Z,99033.49
2018-01-25T04:37:35.279Z,99037.19
2018-01-25T04:43:38.697Z,99042.76
2018-01-25T04:49:42.110Z,99041.31
2018-01-25T04:55:45.543Z,99046.28
2018-01-25T05:01:49.749Z,99056.98
2018-01-25T05:07:53.172Z,99072.28
2018-01-25T05:13:56.604Z,99074.53
2018-01-25T05:20:00.081Z,99079.14
2018-01-25T05:26:03.494Z,99095.55
2018-01-25T05:32:06.904Z,99081.98
2018-01-25T05:38:10.317Z,99071.25
2018-01-25T05:44:13.777Z,99068.38
2018-01-25T05:50:17.192Z,99103.22
2018-01-25T05:56:20.590Z,99113.37
2018-01-25T06:02:24.032Z,99107.23
2018-01-25T06:08:27.445Z,99128.72
2018-01-25T06:14:30.889Z,99142.36
2018-01-25T06:20:34.319Z,99144.02
2018-01-25T06:26:37.788Z,99130.11
2018-01-25T06:32:41.242Z,99141.66
2018-01-25T06:38:44.676Z,99152.66
2018-01-25T06:44:48.487Z,99159.41
2018-01-25T06:50:51.911Z,99148.30
2018-01-25T06:56:55.355Z,99150.99
2018-01-25T07:02:58.789Z,99154.95
2018-01-25T07:09:03.327Z,99148.02
2018-01-25T07:15:07.481Z,99142.05
2018-01-25T07:21:10.929Z,99155.79
2018-01-25T07:27:14.326Z,99150.84
2018-01-25T07:33:17.746Z,99159.27
2018-01-25T07:39:21.178Z,99172.95
2018-01-25T07:45:24.591Z,99177.47
2018-01-25T07:51:28.015Z,99176.23
2018-01-25T07:57:36.872Z,99180.30
2018-01-25T08:03:40.308Z,99174.84
2018-01-25T08:09:43.739Z,99171.03
2018-01-25T08:15:47.375Z,99181.42
2018-01-25T08:21:50.774Z,99185.37
2018-01-25T08:27:54.243Z,99187.69
2018-01-25T08:33:57.671Z,99193.95
2018-01-25T08:40:01.075Z,99208.34
2018-01-25T08:46:05.259Z,99210.25
2018-01-25T08:52:08.751Z,99210.39
2018-01-25T08:58:12.160Z,99200.63
2018-01-25T09:04:15.578Z,99208.89
2018-01-25T09:10:19.012Z,99213.31
2018-01-25T09:16:22.416Z,99189.91
2018-01-25T09:22:25.831Z,99188.55
2018-01-25T09:28:30.014Z,99188.61
2018-01-25T09:34:33.698Z,99189.30
2018-01-25T09:40:37.099Z,99199.59
2018-01-25T09:46:41.312Z,99197.77
2018-01-25T09:52:44.752Z,99206.34
2018-01-25T09:58:48.942Z,99207.74
2018-01-25T10:04:52.360Z,99214.85
2018-01-25T10:10:55.756Z,99217.73
2018-01-25T10:16:59.251Z,99218.80
2018-01-25T10:23:03.433Z,99218.80
2018-01-25T10:29:06.842Z,99214.58
2018-01-25T10:35:10.336Z,99228.86
2018-01-25T10:41:14.525Z,99232.67
2018-01-25T10:47:17.954Z,99228.08
2018-01-25T10:53:21.349Z,99215.92
2018-01-25T10:59:24.763Z,99203.55
2018-01-25T11:05:28.444Z,99191.81
2018-01-25T11:11:32.610Z,99177.93
2018-01-25T11:17:36.030Z,99197.89
2018-01-25T11:23:39.451Z,99181.56
2018-01-25T11:29:42.866Z,99176.08
2018-01-25T11:35:46.283Z,99175.66
2018-01-25T11:41:49.698Z,99172.66
2018-01-25T11:47:53.111Z,99173.17
2018-01-25T11:53:57.293Z,99158.01
2018-01-25T12:00:00.690Z,99174.43
2018-01-25T12:06:04.096Z,99170.41
2018-01-25T12:12:07.490Z,99178.16
2018-01-25T12:18:11.714Z,99174.79
2018-01-25T12:24:15.228Z,99163.41
2018-01-25T12:30:18.571Z,99163.77
2018-01-25T12:36:22.740Z,99151.56
2018-01-25T12:42:26.146Z,99145.93
2018-01-25T12:48:30.907Z,99137.17
2018-01-25T12:54:34.306Z,99135.28
2018-01-25T13:00:37.713Z,99132.16
2018-01-25T13:06:41.875Z,99122.98
2018-01-25T13:12:45.296Z,99120.92
2018-01-25T13:18:48.708Z,99125.69
2018-01-25T13:24:52.141Z,99119.17
2018-01-25T13:30:55.570Z,99108.13
2018-01-25T13:36:58.974Z,99102.67
2018-01-25T13:43:02.378Z,99098.75
2018-01-25T13:49:05.792Z,99087.69
2018-01-25T13:55:09.188Z,99086.20
2018-01-25T14:01:12.629Z,99081.00
2018-01-25T14:07:16.079Z,99098.23
2018-01-25T14:13:19.512Z,99097.91
2018-01-25T14:19:22.959Z,99101.91
2018-01-25T14:25:26.366Z,99102.52
2018-01-25T14:31:29.794Z,99095.68
2018-01-25T14:37:33.210Z,99101.40
2018-01-25T14:43:36.643Z,99105.08
2018-01-25T14:49:40.061Z,99107.09
2018-01-25T14:55:43.479Z,99105.18
2018-01-25T15:01:46.880Z,99090.54
2018-01-25T15:07:50.306Z,99090.20
2018-01-25T15:13:53.698Z,99096.97
2018-01-25T15:19:57.116Z,99091.73
2018-01-25T15:26:00.822Z,99094.37
2018-01-25T15:32:04.226Z,99095.44
2018-01-25T15:38:07.633Z,99101.53
2018-01-25T15:44:11.852Z,99105.27
2018-01-25T15:50:15.246Z,99106.41
2018-01-25T15:56:18.687Z,99108.49
2018-01-25T16:02:22.084Z,99106.19
2018-01-25T16:08:25.539Z,99117.35
2018-01-25T16:14:29.707Z,99116.77
2018-01-25T16:20:33.140Z,99115.60
2018-01-25T16:26:36.547Z,99116.63
2018-01-25T16:32:39.931Z,99125.50
2018-01-25T16:38:44.160Z,99126.69
2018-01-25T16:44:47.572Z,99121.45
2018-01-25T16:50:51.330Z,99120.00
2018-01-25T16:56:54.746Z,99135.17
2018-01-25T17:02:58.192Z,99136.04
2018-01-25T17:09:01.625Z,99134.91
2018-01-25T17:15:07.899Z,99140.52
2018-01-25T17:21:11.297Z,99135.11
2018-01-25T17:27:14.714Z,99144.66
2018-01-25T17:33:18.140Z,99140.91
2018-01-25T17:39:22.012Z,99141.52
2018-01-25T17:45:25.440Z,99138.85
2018-01-25T17:51:28.831Z,99144.39
2018-01-25T17:57:32.235Z,99143.25
2018-01-25T18:03:35.633Z,99139.15
2018-01-25T18:09:39.826Z,99136.59
2018-01-25T18:15:43.258Z,99134.95
2018-01-25T18:21:46.672Z,99134.64
2018-01-25T18:27:50.102Z,99133.55
2018-01-25T18:33:54.303Z,99138.44
2018-01-25T18:39:57.687Z,99135.82
2018-01-25T18:46:01.395Z,99138.08
2018-01-25T18:52:04.823Z,99131.72
2018-01-25T18:58:08.995Z,99135.36
2018-01-25T19:04:12.448Z,99140.60
2018-01-25T19:10:15.870Z,99138.59
2018-01-25T19:16:19.293Z,99140.84
2018-01-25T19:22:22.706Z,99131.16
2018-01-25T19:28:26.159Z,99126.53
2018-01-25T19:34:30.347Z,99130.70
2018-01-25T19:40:33.771Z,99124.84
2018-01-25T19:46:37.644Z,99120.16
2018-01-25T19:52:41.823Z,99117.86
2018-01-25T19:58:45.280Z,99117.76
2018-01-25T20:04:49.617Z,99114.92
2018-01-25T20:10:53.070Z,99116.02
2018-01-25T20:16:56.484Z,99117.49
2018-01-25T20:22:59.904Z,99121.41
2018-01-25T20:29:03.714Z,99115.39
2018-01-25T20:35:07.898Z,99114.81
2018-01-25T20:41:11.335Z,99117.43
2018-01-25T20:47:14.744Z,99125.90
2018-01-25T20:53:18.139Z,99124.68
2018-01-25T20:59:21.530Z,99121.17
2018-01-25T21:05:25.716Z,99121.06
2018-01-25T21:11:29.094Z,99107.67
2018-01-25T21:17:33.265Z,99111.88
2018-01-25T21:23:36.678Z,99121.31
2018-01-25T21:29:40.095Z,99124.08
2018-01-25T21:35:43.517Z,99127.34
2018-01-25T21:41:46.916Z,99117.30
2018-01-25T21:47:50.331Z,99125.58
2018-01-25T21:53:53.766Z,99127.07
2018-01-25T21:59:57.186Z,99133.91
2018-01-25T22:06:00.599Z,99136.08
2018-01-25T22:12:03.983Z,99134.34
2018-01-25T22:18:07.410Z,99135.93
2018-01-25T22:24:11.608Z,99140.91
2018-01-25T22:30:15.039Z,99145.75
2018-01-25T22:36:18.460Z,99141.02
2018-01-25T22:42:21.870Z,99139.80
2018-01-25T22:48:25.259Z,99136.44
2018-01-25T22:54:28.669Z,99138.00
2018-01-25T23:00:39.983Z,99150.44
2018-01-25T23:06:43.398Z,99145.52
2018-01-25T23:12:46.820Z,99159.53
2018-01-25T23:18:50.251Z,99166.56
2018-01-25T23:24:53.665Z,99163.28
2018-01-25T23:30:57.052Z,99168.90
2018-01-25T23:37:00.481Z,99174.30
2018-01-25T23:43:03.889Z,99173.19
2018-01-25T23:49:08.079Z,99173.95
2018-01-25T23:55:11.520Z,99171.54
